createdAt,value
2022-09-09T00:01:34.271Z,100.00
2022-09-09T00:04:06.685Z,100.00
2022-09-09T00:06:38.500Z,100.00
2022-09-09T00:09:13.903Z,100.00
2022-09-09T00:12:11.824Z,100.00
2022-09-09T00:15:06.944Z,100.00
2022-09-09T00:18:06.639Z,100.00
2022-09-09T00:20:42.464Z,100.00
2022-09-09T00:23:31.938Z,100.00
2022-09-09T00:26:31.965Z,100.00
2022-09-09T00:29:10.730Z,100.00
2022-09-09T00:31:38.216Z,100.00
2022-09-09T00:34:17.371Z,100.00
2022-09-09T00:36:46.856Z,100.00
2022-09-09T00:39:42.727Z,100.00
2022-09-09T00:42:33.817Z,100.00
2022-09-09T00:45:03.027Z,100.00
2022-09-09T00:47:46.676Z,100.00
2022-09-09T00:50:13.044Z,100.00
2022-09-09T00:53:03.640Z,100.00
2022-09-09T00:55:33.367Z,100.00
2022-09-09T00:57:59.799Z,100.00
2022-09-09T01:00:43.604Z,100.00
2022-09-09T01:03:18.658Z,100.00
2022-09-09T01:05:54.027Z,100.00
2022-09-09T01:08:37.361Z,100.00
2022-09-09T01:11:04.458Z,100.00
2022-09-09T01:13:36.493Z,100.00
2022-09-09T01:16:06.162Z,100.00
2022-09-09T01:18:41.692Z,100.00
2022-09-09T01:21:21.844Z,100.00
2022-09-09T01:24:16.734Z,100.00
2022-09-09T01:26:44.952Z,100.00
2022-09-09T01:29:15.425Z,100.00
2022-09-09T01:31:59.943Z,100.00
2022-09-09T01:34:32.712Z,100.00
2022-09-09T01:37:07.545Z,100.00
2022-09-09T01:39:36.737Z,100.00
2022-09-09T01:42:06.077Z,100.00
2022-09-09T01:44:33.002Z,100.00
2022-09-09T01:46:59.773Z,100.00
2022-09-09T01:49:26.170Z,100.00
2022-09-09T01:51:55.968Z,100.00
2022-09-09T01:54:25.241Z,100.00
2022-09-09T01:57:11.470Z,100.00
2022-09-09T02:00:14.281Z,100.00
2022-09-09T02:03:06.487Z,100.00
2022-09-09T02:05:56.762Z,100.00
2022-09-09T02:08:48.060Z,100.00
2022-09-09T02:11:20.269Z,100.00
2022-09-09T02:13:49.401Z,100.00
2022-09-09T02:16:27.453Z,100.00
2022-09-09T02:19:02.517Z,100.00
2022-09-09T02:21:31.424Z,100.00
2022-09-09T02:24:00.440Z,100.00
2022-09-09T02:26:27.696Z,100.00
2022-09-09T02:28:58.570Z,100.00
2022-09-09T02:31:25.872Z,100.00
2022-09-09T02:33:56.412Z,100.00
2022-09-09T02:36:26.788Z,100.00
2022-09-09T02:38:54.872Z,100.00
2022-09-09T02:41:26.932Z,100.00
2022-09-09T02:43:53.323Z,100.00
2022-09-09T02:46:37.969Z,100.00
2022-09-09T02:49:11.269Z,100.00
2022-09-09T02:51:40.669Z,100.00
2022-09-09T02:54:15.204Z,100.00
2022-09-09T02:56:51.430Z,100.00
2022-09-09T02:59:19.057Z,100.00
2022-09-09T03:01:45.992Z,100.00
2022-09-09T03:04:12.466Z,100.00
2022-09-09T03:06:38.869Z,100.00
2022-09-09T03:09:05.620Z,100.00
2022-09-09T03:11:32.192Z,100.00
2022-09-09T03:13:58.703Z,100.00
2022-09-09T03:16:25.413Z,100.00
2022-09-09T03:18:51.893Z,100.00
2022-09-09T03:21:18.625Z,100.00
2022-09-09T03:23:45.936Z,100.00
2022-09-09T03:26:12.714Z,100.00
2022-09-09T03:28:39.108Z,100.00
2022-09-09T03:31:06.537Z,100.00
2022-09-09T03:33:32.960Z,100.00
2022-09-09T03:35:59.347Z,100.00
2022-09-09T03:38:26.322Z,100.00
2022-09-09T03:40:58.145Z,100.00
2022-09-09T03:43:26.601Z,100.00
2022-09-09T03:45:54.132Z,100.00
2022-09-09T03:48:20.597Z,100.00
2022-09-09T03:50:48.644Z,100.00
2022-09-09T03:53:16.149Z,100.00
2022-09-09T03:55:50.909Z,100.00
2022-09-09T03:58:19.565Z,100.00
2022-09-09T04:01:09.950Z,100.00
2022-09-09T04:03:36.470Z,100.00
2022-09-09T04:06:05.139Z,100.00
2022-09-09T04:08:34.722Z,100.00
2022-09-09T04:11:02.688Z,100.00
2022-09-09T04:13:29.509Z,100.00
2022-09-09T04:15:58.824Z,100.00
2022-09-09T04:18:26.943Z,100.00
2022-09-09T04:20:54.124Z,100.00
2022-09-09T04:23:21.535Z,100.00
2022-09-09T04:25:53.463Z,100.00
2022-09-09T04:28:23.166Z,100.00
2022-09-09T04:30:49.569Z,100.00
2022-09-09T04:33:16.216Z,100.00
2022-09-09T04:35:51.100Z,100.00
2022-09-09T04:38:18.503Z,100.00
2022-09-09T04:40:48.325Z,100.00
2022-09-09T04:43:15.703Z,100.00
2022-09-09T04:45:48.221Z,100.00
2022-09-09T04:48:15.027Z,100.00
2022-09-09T04:50:41.577Z,100.00
2022-09-09T04:53:08.492Z,100.00
2022-09-09T04:55:35.969Z,100.00
2022-09-09T04:58:06.780Z,100.00
2022-09-09T05:00:34.818Z,100.00
2022-09-09T05:03:05.036Z,100.00
2022-09-09T05:05:31.581Z,100.00
2022-09-09T05:08:09.480Z,100.00
2022-09-09T05:10:38.836Z,100.00
2022-09-09T05:13:06.079Z,100.00
2022-09-09T05:15:32.478Z,100.00
2022-09-09T05:18:01.489Z,100.00
2022-09-09T05:20:28.373Z,100.00
2022-09-09T05:22:55.941Z,100.00
2022-09-09T05:25:23.163Z,100.00
2022-09-09T05:27:50.498Z,100.00
2022-09-09T05:30:17.626Z,100.00
2022-09-09T05:32:44.345Z,100.00
2022-09-09T05:35:10.967Z,100.00
2022-09-09T05:37:37.422Z,100.00
2022-09-09T05:40:04.260Z,100.00
2022-09-09T05:42:32.096Z,100.00
2022-09-09T05:44:59.097Z,100.00
2022-09-09T05:47:25.725Z,100.00
2022-09-09T05:49:52.509Z,100.00
2022-09-09T05:52:18.902Z,100.00
2022-09-09T05:54:45.272Z,100.00
2022-09-09T05:57:11.679Z,100.00
2022-09-09T05:59:39.232Z,100.00
2022-09-09T06:02:05.768Z,100.00
2022-09-09T06:04:32.278Z,100.00
2022-09-09T06:06:58.665Z,100.00
2022-09-09T06:09:25.112Z,100.00
2022-09-09T06:11:51.604Z,100.00
2022-09-09T06:14:19.005Z,100.00
2022-09-09T06:16:46.172Z,100.00
2022-09-09T06:19:13.728Z,100.00
2022-09-09T06:21:41.104Z,100.00
2022-09-09T06:24:08.501Z,100.00
2022-09-09T06:26:37.634Z,100.00
2022-09-09T06:29:05.321Z,100.00
2022-09-09T06:31:35.160Z,100.00
2022-09-09T06:34:02.074Z,100.00
2022-09-09T06:36:31.947Z,100.00
2022-09-09T06:38:58.880Z,100.00
2022-09-09T06:41:27.764Z,100.00
2022-09-09T06:43:54.304Z,100.00
2022-09-09T06:46:32.501Z,100.00
2022-09-09T06:49:00.778Z,100.00
2022-09-09T06:51:32.433Z,100.00
2022-09-09T06:54:03.116Z,100.00
2022-09-09T06:56:34.014Z,100.00
2022-09-09T06:59:04.731Z,100.00
2022-09-09T07:01:34.549Z,100.00
2022-09-09T07:04:01.893Z,100.00
2022-09-09T07:06:31.119Z,100.00
2022-09-09T07:09:05.886Z,100.00
2022-09-09T07:11:35.112Z,100.00
2022-09-09T07:14:02.152Z,100.00
2022-09-09T07:16:30.502Z,100.00
2022-09-09T07:18:58.757Z,100.00
2022-09-09T07:21:27.467Z,100.00
2022-09-09T07:23:55.418Z,100.00
2022-09-09T07:26:26.332Z,100.00
2022-09-09T07:28:53.161Z,100.00
2022-09-09T07:31:28.828Z,100.00
2022-09-09T07:33:55.281Z,100.00
2022-09-09T07:36:24.570Z,100.00
2022-09-09T07:38:57.189Z,100.00
2022-09-09T07:41:32.216Z,100.00
2022-09-09T07:43:59.275Z,100.00
2022-09-09T07:46:27.354Z,100.00
2022-09-09T07:48:56.637Z,100.00
2022-09-09T07:51:26.672Z,100.00
2022-09-09T07:54:00.974Z,100.00
2022-09-09T07:56:28.986Z,100.00
2022-09-09T07:58:57.203Z,100.00
2022-09-09T08:01:30.885Z,100.00
2022-09-09T08:04:03.903Z,100.00
2022-09-09T08:06:38.433Z,100.00
2022-09-09T08:09:05.896Z,100.00
2022-09-09T08:11:38.671Z,100.00
2022-09-09T08:14:07.103Z,100.00
2022-09-09T08:16:37.364Z,100.00
2022-09-09T08:19:04.588Z,100.00
2022-09-09T08:21:34.088Z,100.00
2022-09-09T08:24:02.615Z,100.00
2022-09-09T08:26:42.426Z,100.00
2022-09-09T08:29:11.112Z,100.00
2022-09-09T08:31:52.191Z,100.00
2022-09-09T08:34:20.927Z,100.00
2022-09-09T08:36:48.950Z,100.00
2022-09-09T08:39:17.267Z,100.00
2022-09-09T08:42:17.155Z,100.00
2022-09-09T08:44:55.750Z,100.00
2022-09-09T08:47:59.736Z,100.00
2022-09-09T08:50:36.354Z,100.00
2022-09-09T08:53:10.341Z,100.00
2022-09-09T08:55:45.701Z,100.00
2022-09-09T08:58:33.989Z,100.00
2022-09-09T09:01:36.151Z,100.00
2022-09-09T09:04:21.072Z,100.00
2022-09-09T09:07:13.293Z,100.00
2022-09-09T09:10:01.361Z,100.00
2022-09-09T09:12:33.907Z,100.00
2022-09-09T09:15:00.792Z,100.00
2022-09-09T09:17:32.281Z,100.00
2022-09-09T09:20:00.553Z,100.00
2022-09-09T09:22:33.876Z,100.00
2022-09-09T09:25:32.428Z,100.00
2022-09-09T09:28:18.346Z,100.00
2022-09-09T09:31:13.585Z,100.00
2022-09-09T09:33:53.734Z,100.00
2022-09-09T09:36:24.431Z,100.00
2022-09-09T09:41:48.703Z,100.00
2022-09-09T09:44:32.707Z,100.00
2022-09-09T09:47:22.831Z,100.00
2022-09-09T09:49:54.501Z,100.00
2022-09-09T09:52:24.900Z,100.00
2022-09-09T09:54:53.216Z,100.00
2022-09-09T09:57:32.754Z,100.00
2022-09-09T10:00:06.693Z,100.00
2022-09-09T10:02:39.869Z,100.00
2022-09-09T10:05:16.754Z,100.00
2022-09-09T10:07:53.889Z,100.00
2022-09-09T10:10:32.657Z,100.00
2022-09-09T10:13:24.939Z,100.00
2022-09-09T10:16:07.609Z,100.00
2022-09-09T10:19:02.435Z,100.00
2022-09-09T10:21:37.588Z,100.00
2022-09-09T10:24:30.675Z,100.00
2022-09-09T10:27:18.027Z,100.00
2022-09-09T10:30:25.182Z,100.00
2022-09-09T10:33:07.920Z,100.00
2022-09-09T10:35:47.801Z,100.00
2022-09-09T10:38:37.545Z,100.00
2022-09-09T10:41:26.860Z,100.00
2022-09-09T10:44:37.729Z,100.00
2022-09-09T10:47:29.843Z,100.00
2022-09-09T10:51:00.359Z,100.00
2022-09-09T10:53:39.913Z,100.00
2022-09-09T10:56:22.229Z,100.00
2022-09-09T10:58:59.294Z,100.00
2022-09-09T11:01:50.946Z,100.00
2022-09-09T11:04:31.918Z,100.00
2022-09-09T11:07:07.432Z,100.00
2022-09-09T11:09:50.937Z,100.00
2022-09-09T11:12:21.232Z,100.00
2022-09-09T11:14:56.018Z,100.00
2022-09-09T11:17:34.680Z,100.00
2022-09-09T11:20:01.653Z,100.00
2022-09-09T11:22:56.312Z,100.00
2022-09-09T11:25:35.842Z,100.00
2022-09-09T11:28:22.038Z,100.00
2022-09-09T11:30:57.165Z,100.00
2022-09-09T11:33:42.735Z,100.00
2022-09-09T11:36:37.132Z,100.00
2022-09-09T11:39:27.774Z,100.00
2022-09-09T11:41:54.815Z,100.00
2022-09-09T11:44:30.997Z,100.00
2022-09-09T11:46:57.685Z,100.00
2022-09-09T11:49:44.548Z,98.19
2022-09-09T11:52:15.129Z,100.00
2022-09-09T11:54:50.058Z,98.07
2022-09-09T11:57:31.973Z,97.81
2022-09-09T11:59:59.893Z,99.18
2022-09-09T12:02:33.542Z,98.10
2022-09-09T12:05:09.730Z,99.43
2022-09-09T12:07:47.480Z,97.96
2022-09-09T12:10:28.277Z,99.70
2022-09-09T12:12:54.742Z,98.83
2022-09-09T12:15:28.937Z,99.06
2022-09-09T12:18:02.988Z,97.98
2022-09-09T12:20:37.883Z,95.11
2022-09-09T12:23:07.127Z,96.89
2022-09-09T12:26:16.659Z,95.76
2022-09-09T12:28:51.832Z,95.96
2022-09-09T12:31:31.570Z,96.51
2022-09-09T12:34:26.382Z,95.95
2022-09-09T12:37:00.872Z,95.75
2022-09-09T12:39:34.397Z,95.58
2022-09-09T12:42:01.100Z,97.12
2022-09-09T12:44:30.933Z,95.36
2022-09-09T12:47:01.844Z,93.75
2022-09-09T12:49:39.537Z,92.63
2022-09-09T12:52:27.632Z,90.98
2022-09-09T12:54:54.786Z,91.17
2022-09-09T12:57:26.399Z,90.78
2022-09-09T12:59:54.206Z,90.79
2022-09-09T13:02:26.429Z,91.16
2022-09-09T13:04:56.123Z,91.02
2022-09-09T13:07:22.867Z,91.14
2022-09-09T13:09:50.313Z,89.54
2022-09-09T13:12:23.548Z,89.23
2022-09-09T13:14:53.832Z,89.07
2022-09-09T13:17:26.310Z,87.19
2022-09-09T13:19:53.914Z,89.32
2022-09-09T13:22:26.167Z,90.16
2022-09-09T13:25:18.448Z,90.95
2022-09-09T13:28:03.497Z,89.29
2022-09-09T13:30:41.121Z,91.21
2022-09-09T13:33:13.886Z,91.25
2022-09-09T13:35:58.368Z,88.44
2022-09-09T13:38:27.818Z,91.27
2022-09-09T13:41:05.286Z,87.30
2022-09-09T13:43:39.560Z,88.97
2022-09-09T13:46:29.369Z,88.42
2022-09-09T13:49:00.689Z,89.74
2022-09-09T13:51:51.606Z,85.92
2022-09-09T13:54:20.816Z,88.37
2022-09-09T13:56:48.163Z,88.29
2022-09-09T13:59:23.110Z,87.07
2022-09-09T14:01:53.352Z,87.58
2022-09-09T14:04:23.300Z,86.69
2022-09-09T14:06:51.248Z,86.01
2022-09-09T14:09:19.134Z,85.93
2022-09-09T14:11:47.064Z,86.96
2022-09-09T14:14:13.566Z,85.58
2022-09-09T14:16:39.985Z,86.26
2022-09-09T14:19:06.375Z,87.07
2022-09-09T14:21:33.569Z,86.98
2022-09-09T14:24:00.116Z,86.84
2022-09-09T14:26:27.228Z,87.22
2022-09-09T14:28:55.982Z,87.66
2022-09-09T14:31:23.905Z,86.87
2022-09-09T14:33:51.714Z,86.52
2022-09-09T14:36:18.215Z,86.58
2022-09-09T14:38:44.640Z,85.25
2022-09-09T14:41:18.812Z,85.00
2022-09-09T14:43:46.650Z,85.55
2022-09-09T14:46:15.476Z,85.09
2022-09-09T14:48:42.333Z,84.93
2022-09-09T14:51:20.395Z,85.21
2022-09-09T14:53:47.772Z,85.80
2022-09-09T14:56:16.901Z,83.91
2022-09-09T14:58:43.810Z,83.71
2022-09-09T15:01:12.587Z,83.95
2022-09-09T15:03:48.810Z,84.38
2022-09-09T15:06:15.882Z,84.11
2022-09-09T15:08:44.100Z,84.18
2022-09-09T15:11:13.041Z,83.40
2022-09-09T15:13:41.684Z,83.55
2022-09-09T15:16:10.810Z,82.91
2022-09-09T15:18:37.649Z,83.25
2022-09-09T15:21:05.867Z,82.44
2022-09-09T15:23:33.874Z,82.50
2022-09-09T15:26:00.306Z,82.25
2022-09-09T15:28:26.917Z,82.65
2022-09-09T15:30:54.746Z,83.25
2022-09-09T15:33:23.020Z,81.61
2022-09-09T15:35:50.780Z,81.39
2022-09-09T15:38:18.281Z,81.90
2022-09-09T15:40:44.819Z,81.80
2022-09-09T15:43:11.695Z,80.38
2022-09-09T15:45:38.460Z,81.13
2022-09-09T15:48:05.475Z,80.69
2022-09-09T15:50:33.331Z,80.81
2022-09-09T15:53:00.880Z,80.70
2022-09-09T15:55:27.336Z,80.54
2022-09-09T15:57:53.943Z,80.82
2022-09-09T16:00:20.965Z,80.35
2022-09-09T16:02:48.202Z,80.57
2022-09-09T16:05:14.786Z,80.71
2022-09-09T16:07:43.315Z,81.14
2022-09-09T16:10:11.701Z,81.03
2022-09-09T16:12:38.181Z,80.67
2022-09-09T16:15:04.834Z,80.56
2022-09-09T16:17:31.301Z,79.85
2022-09-09T16:19:58.569Z,79.50
2022-09-09T16:22:25.454Z,80.13
2022-09-09T16:24:51.870Z,78.69
2022-09-09T16:27:19.058Z,78.95
2022-09-09T16:29:46.239Z,79.04
2022-09-09T16:32:12.893Z,79.39
2022-09-09T16:34:39.303Z,79.30
2022-09-09T16:37:05.819Z,79.07
2022-09-09T16:39:32.370Z,79.51
2022-09-09T16:41:58.847Z,79.27
2022-09-09T16:44:27.027Z,79.14
2022-09-09T16:46:59.632Z,79.39
2022-09-09T16:49:28.495Z,79.61
2022-09-09T16:51:54.935Z,79.69
2022-09-09T16:54:22.862Z,80.47
2022-09-09T16:56:49.463Z,80.69
2022-09-09T16:59:20.667Z,80.49
2022-09-09T17:01:49.514Z,80.65
2022-09-09T17:04:21.359Z,81.35
2022-09-09T17:06:53.134Z,81.54
2022-09-09T17:09:20.771Z,81.48
2022-09-09T17:11:48.828Z,81.24
2022-09-09T17:14:18.139Z,82.12
2022-09-09T17:16:45.173Z,82.55
2022-09-09T17:19:12.841Z,83.04
2022-09-09T17:21:54.618Z,83.15
2022-09-09T17:24:27.444Z,83.85
2022-09-09T17:26:55.268Z,83.93
2022-09-09T17:29:22.184Z,84.48
2022-09-09T17:31:48.617Z,84.91
2022-09-09T17:34:15.251Z,85.34
2022-09-09T17:36:41.930Z,85.59
2022-09-09T17:39:09.078Z,86.44
2022-09-09T17:41:40.029Z,87.07
2022-09-09T17:46:41.920Z,88.07
2022-09-09T17:49:13.534Z,88.61
2022-09-09T17:51:42.270Z,88.90
2022-09-09T17:54:11.795Z,89.19
2022-09-09T17:56:39.081Z,89.76
2022-09-09T17:59:10.389Z,90.45
2022-09-09T18:01:39.528Z,90.63
2022-09-09T18:04:08.049Z,91.05
2022-09-09T18:06:37.149Z,91.35
2022-09-09T18:09:25.315Z,91.69
2022-09-09T18:11:54.677Z,92.62
2022-09-09T18:14:25.375Z,93.05
2022-09-09T18:16:52.435Z,93.56
2022-09-09T18:19:22.632Z,93.33
2022-09-09T18:21:50.040Z,93.76
2022-09-09T18:24:17.877Z,94.00
2022-09-09T18:26:45.529Z,94.64
2022-09-09T18:29:14.656Z,96.24
2022-09-09T18:31:42.460Z,97.19
2022-09-09T18:34:11.772Z,98.36
2022-09-09T18:36:45.309Z,98.25
2022-09-09T18:39:13.992Z,98.94
2022-09-09T18:41:43.233Z,98.65
2022-09-09T18:44:19.036Z,98.44
2022-09-09T18:46:45.469Z,97.22
2022-09-09T18:49:12.475Z,97.06
2022-09-09T18:51:41.164Z,97.46
2022-09-09T18:54:12.109Z,98.63
2022-09-09T18:56:39.099Z,98.41
2022-09-09T18:59:07.749Z,97.91
2022-09-09T19:01:37.687Z,97.56
2022-09-09T19:04:06.154Z,98.31
2022-09-09T19:06:34.791Z,98.47
2022-09-09T19:09:03.726Z,99.12
2022-09-09T19:11:33.535Z,99.15
2022-09-09T19:14:04.781Z,99.39
2022-09-09T19:16:34.321Z,99.35
2022-09-09T19:19:04.265Z,99.62
2022-09-09T19:21:33.641Z,100.00
2022-09-09T19:24:15.433Z,100.00
2022-09-09T19:26:45.655Z,100.00
2022-09-09T19:29:21.369Z,100.00
2022-09-09T19:32:14.986Z,100.00
2022-09-09T19:34:36.353Z,100.00
2022-09-09T19:37:02.769Z,100.00
2022-09-09T19:39:29.404Z,100.00
2022-09-09T19:41:55.880Z,100.00
2022-09-09T19:44:22.596Z,100.00
2022-09-09T19:46:49.938Z,100.00
2022-09-09T19:49:17.554Z,100.00
2022-09-09T19:51:44.035Z,100.00
2022-09-09T19:54:13.214Z,100.00
2022-09-09T19:56:41.184Z,100.00
2022-09-09T19:59:09.640Z,100.00
2022-09-09T20:01:40.326Z,100.00
2022-09-09T20:04:08.574Z,100.00
2022-09-09T20:06:37.411Z,100.00
2022-09-09T20:09:05.962Z,100.00
2022-09-09T20:11:32.761Z,100.00
2022-09-09T20:13:59.306Z,100.00
2022-09-09T20:16:28.896Z,100.00
2022-09-09T20:18:57.511Z,100.00
2022-09-09T20:21:32.345Z,100.00
2022-09-09T20:24:04.573Z,100.00
2022-09-09T20:26:33.508Z,100.00
2022-09-09T20:29:00.843Z,100.00
2022-09-09T20:31:29.602Z,100.00
2022-09-09T20:36:32.242Z,100.00
2022-09-09T20:39:01.478Z,100.00
2022-09-09T20:41:31.117Z,100.00
2022-09-09T20:44:01.477Z,100.00
2022-09-09T20:46:33.873Z,100.00
2022-09-09T20:49:03.067Z,100.00
2022-09-09T20:51:32.966Z,100.00
2022-09-09T20:54:13.824Z,100.00
2022-09-09T20:56:42.481Z,100.00
2022-09-09T20:59:12.264Z,100.00
2022-09-09T21:01:39.385Z,100.00
2022-09-09T21:04:06.796Z,100.00
2022-09-09T21:06:33.187Z,100.00
2022-09-09T21:08:59.673Z,100.00
2022-09-09T21:11:26.242Z,100.00
2022-09-09T21:13:52.718Z,100.00
2022-09-09T21:16:21.071Z,100.00
2022-09-09T21:18:49.296Z,100.00
2022-09-09T21:21:18.972Z,100.00
2022-09-09T21:23:45.400Z,100.00
2022-09-09T21:26:11.791Z,100.00
2022-09-09T21:28:38.426Z,100.00
2022-09-09T21:31:09.065Z,100.00
2022-09-09T21:33:35.473Z,100.00
2022-09-09T21:36:05.910Z,100.00
2022-09-09T21:38:32.955Z,100.00
2022-09-09T21:41:07.162Z,100.00
2022-09-09T21:43:34.004Z,100.00
2022-09-09T21:46:04.088Z,100.00
2022-09-09T21:48:31.535Z,100.00
2022-09-09T21:51:03.801Z,100.00
2022-09-09T21:53:31.326Z,100.00
2022-09-09T21:56:02.678Z,100.00
2022-09-09T21:58:30.155Z,100.00
2022-09-09T22:00:56.757Z,100.00
2022-09-09T22:03:23.600Z,100.00
2022-09-09T22:05:53.809Z,100.00
2022-09-09T22:08:21.197Z,100.00
2022-09-09T22:10:47.741Z,100.00
2022-09-09T22:13:17.875Z,100.00
2022-09-09T22:15:45.957Z,100.00
2022-09-09T22:18:14.063Z,100.00
2022-09-09T22:20:43.060Z,100.00
2022-09-09T22:23:10.278Z,100.00
2022-09-09T22:25:38.025Z,100.00
2022-09-09T22:28:06.890Z,100.00
2022-09-09T22:30:33.978Z,100.00
2022-09-09T22:33:01.191Z,100.00
2022-09-09T22:35:28.992Z,100.00
2022-09-09T22:37:55.866Z,100.00
2022-09-09T22:40:22.618Z,100.00
2022-09-09T22:42:52.583Z,100.00
2022-09-09T22:45:20.846Z,100.00
2022-09-09T22:47:47.641Z,100.00
2022-09-09T22:50:14.336Z,100.00
2022-09-09T22:52:40.753Z,100.00
2022-09-09T22:55:07.817Z,100.00
2022-09-09T22:57:34.234Z,100.00
2022-09-09T23:00:01.353Z,100.00
2022-09-09T23:02:28.994Z,100.00
2022-09-09T23:04:55.414Z,100.00
2022-09-09T23:07:23.362Z,100.00
2022-09-09T23:09:49.826Z,100.00
2022-09-09T23:12:18.808Z,100.00
2022-09-09T23:14:45.225Z,100.00
2022-09-09T23:17:14.554Z,100.00
2022-09-09T23:19:41.493Z,100.00
2022-09-09T23:22:07.884Z,100.00
2022-09-09T23:24:34.675Z,100.00
2022-09-09T23:27:01.104Z,100.00
2022-09-09T23:29:27.564Z,100.00
2022-09-09T23:31:53.935Z,100.00
2022-09-09T23:34:20.386Z,100.00
2022-09-09T23:36:47.109Z,100.00
2022-09-09T23:39:13.574Z,100.00
2022-09-09T23:41:40.256Z,100.00
2022-09-09T23:44:07.430Z,100.00
2022-09-09T23:46:35.131Z,100.00
2022-09-09T23:49:02.558Z,100.00
2022-09-09T23:51:30.503Z,100.00
2022-09-09T23:53:59.087Z,100.00
2022-09-09T23:56:37.701Z,100.00
2022-09-09T23:59:07.939Z,100.00
